CST,Max TemperatureF,Mean TemperatureF,Min TemperatureF,Max Dew PointF,MeanDew PointF,Min DewpointF,Max Humidity, Mean Humidity, Min Humidity, Max Sea Level PressureIn, Mean Sea Level PressureIn, Min Sea Level PressureIn, Max VisibilityMiles, Mean VisibilityMiles, Min VisibilityMiles, Max Wind SpeedMPH, Mean Wind SpeedMPH, Max Gust SpeedMPH,PrecipitationIn, CloudCover, Events, WindDirDegrees
2013-12-1,45,30,14,28,23,13,92,73,53,30.20,30.06,29.81,10,10,7,12,2,13,0.00,1,,198
2013-12-2,63,42,20,33,26,18,96,63,30,29.78,29.62,29.51,10,8,2,14,3,17,0.00,1,,285
2013-12-3,39,30,21,31,26,15,92,83,74,29.84,29.66,29.53,10,7,1,24,13,30,0.00,7,,1
2013-12-4,21,14,6,13,5,-4,84,70,56,30.25,29.89,29.71,10,9,4,31,23,41,T,6,Rain-Snow,324
2013-12-5,14,7,-1,-4,-8,-10,69,54,38,30.54,30.40,30.24,10,10,10,28,15,35,0.00,1,,326
2013-12-6,10,1,-8,-8,-11,-14,74,60,45,30.79,30.67,30.54,10,10,10,16,8,21,0.00,0,,325
2013-12-7,8,-1,-11,1,-8,-16,83,67,50,30.78,30.63,30.35,10,9,2,16,7,22,T,3,Snow,126
2013-12-8,15,8,0,7,3,-8,88,79,69,30.35,30.12,29.95,10,6,2,20,7,25,T,6,Snow,252
2013-12-9,24,10,-5,8,-1,-10,78,61,44,30.39,30.25,30.09,10,10,10,21,11,26,0.00,0,,262
2013-12-10,37,24,10,26,16,9,88,63,37,30.40,30.18,30.06,10,10,8,25,11,31,T,4,Snow,282
2013-12-11,26,12,-2,14,5,-6,99,99,99,30.68,30.46,30.33,10,10,10,18,11,25,0.00,1,,267
2013-12-12,52,28,3,21,11,0,91,58,24,30.44,30.28,30.05,10,10,10,17,4,20,0.00,0,,213
2013-12-13,56,34,11,22,15,9,88,61,34,30.21,30.02,29.88,10,8,5,20,9,25,0.00,4,,7
2013-12-14,54,34,12,22,13,7,80,54,28,30.30,30.20,30.12,10,8,5,18,7,23,0.00,5,Rain,322
2013-12-15,99,61,22,21,18,16,77,70,63,30.09,29.98,29.89,10,10,10,17,5,,0.00,4,,296
2013-12-16,53,37,19,29,24,17,92,65,38,30.23,30.03,29.93,10,10,10,15,5,,0.00,0,,319
2013-12-17,47,32,16,24,18,13,92,60,28,30.38,30.24,30.01,10,10,10,17,6,21,0.00,1,,287
2013-12-18,68,43,17,25,20,15,78,47,15,29.98,29.81,29.67,10,10,10,14,5,17,0.00,0,,333
2013-12-19,37,23,8,26,15,3,88,76,64,30.09,29.89,29.77,10,9,4,23,15,29,T,7,Snow,9
2013-12-20,19,12,5,9,3,1,88,75,61,30.12,30.01,29.84,10,10,9,24,9,30,T,6,Snow,333
2013-12-21,32,17,2,14,7,-1,91,69,47,30.03,29.90,29.83,10,10,8,17,5,23,T,2,,5
2013-12-22,24,15,5,9,6,1,87,70,52,30.49,30.22,29.94,10,9,2,21,11,24,T,5,Snow,342
2013-12-23,15,5,-5,4,-2,-9,82,67,51,30.68,30.55,30.37,10,10,6,20,9,25,T,4,Snow,282
2013-12-24,40,24,8,32,17,3,92,74,56,30.41,30.16,29.98,10,9,7,24,14,31,0.00,7,,206
2013-12-25,42,30,18,24,18,11,92,65,38,30.38,30.31,30.24,10,10,10,28,12,34,0.00,0,,286
2013-12-26,53,35,17,23,18,12,81,54,26,30.30,30.20,30.13,10,10,10,23,7,27,0.00,0,,297
2013-12-27,62,37,12,25,19,11,92,58,23,30.27,30.18,30.06,10,10,10,16,5,19,0.00,0,,252
2013-12-28,61,36,10,29,16,0,84,53,22,30.29,30.00,29.79,10,10,9,39,15,50,T,3,,337
2013-12-29,17,10,2,1,-4,-7,75,58,40,30.53,30.39,30.22,10,10,10,35,12,46,0.00,2,,322
2013-12-30,46,28,10,25,12,-1,92,66,40,30.33,30.17,30.08,10,10,10,39,12,49,0.00,3,,280
2013-12-31,49,30,10,23,14,8,92,63,34,30.25,30.11,29.99,10,10,10,18,8,23,0.00,2,,86